createdAt,value
2023-04-21T00:00:59.892Z,10.38
2023-04-21T00:03:28.501Z,10.65
2023-04-21T00:05:58.771Z,10.40
2023-04-21T00:08:28.372Z,12.90
2023-04-21T00:10:55.415Z,11.50
2023-04-21T00:13:23.891Z,11.65
2023-04-21T00:15:51.246Z,11.43
2023-04-21T00:18:18.592Z,12.95
2023-04-21T00:20:45.639Z,14.35
2023-04-21T00:23:12.704Z,12.27
2023-04-21T00:25:39.782Z,12.55
2023-04-21T00:28:06.827Z,13.43
2023-04-21T00:30:33.816Z,14.13
2023-04-21T00:33:00.967Z,13.27
2023-04-21T00:35:28.074Z,13.00
2023-04-21T00:37:55.049Z,12.40
2023-04-21T00:40:22.684Z,14.80
2023-04-21T00:42:49.737Z,14.93
2023-04-21T00:45:16.878Z,15.10
2023-04-21T00:47:44.090Z,15.27
2023-04-21T00:50:12.185Z,15.32
2023-04-21T00:52:40.770Z,13.18
2023-04-21T00:55:08.238Z,14.13
2023-04-21T00:57:37.953Z,15.30
2023-04-21T01:00:06.235Z,15.73
2023-04-21T01:02:35.897Z,16.58
2023-04-21T01:05:09.154Z,15.30
2023-04-21T01:07:36.345Z,16.25
2023-04-21T01:10:04.123Z,15.40
2023-04-21T01:12:31.241Z,15.40
2023-04-21T01:14:58.765Z,16.55
2023-04-21T01:17:26.904Z,15.48
2023-04-21T01:19:56.576Z,15.98
2023-04-21T01:22:23.803Z,16.70
2023-04-21T01:24:52.484Z,15.82
2023-04-21T01:27:20.815Z,16.42
2023-04-21T01:29:52.654Z,17.08
2023-04-21T01:32:23.928Z,17.13
2023-04-21T01:34:52.791Z,16.23
2023-04-21T01:37:23.847Z,17.30
2023-04-21T01:39:57.013Z,17.23
2023-04-21T01:42:26.312Z,17.05
2023-04-21T01:44:54.553Z,17.25
2023-04-21T01:47:22.992Z,16.90
2023-04-21T01:49:50.389Z,14.98
2023-04-21T01:52:17.473Z,16.45
2023-04-21T01:54:44.793Z,16.10
2023-04-21T01:57:11.905Z,16.35
2023-04-21T01:59:39.138Z,15.60
2023-04-21T02:02:06.409Z,16.58
2023-04-21T02:04:34.126Z,15.80
2023-04-21T02:07:01.833Z,17.38
2023-04-21T02:09:29.234Z,17.27
2023-04-21T02:11:57.220Z,16.42
2023-04-21T02:14:25.951Z,15.98
2023-04-21T02:16:56.064Z,17.58
2023-04-21T02:19:24.486Z,17.33
2023-04-21T02:21:51.585Z,17.23
2023-04-21T02:24:18.984Z,17.63
2023-04-21T02:26:46.311Z,16.90
2023-04-21T02:29:13.797Z,17.75
2023-04-21T02:31:56.505Z,16.60
2023-04-21T02:34:24.691Z,17.25
2023-04-21T02:36:52.552Z,17.35
2023-04-21T02:39:20.050Z,18.00
2023-04-21T02:41:47.249Z,18.42
2023-04-21T02:44:14.293Z,18.08
2023-04-21T02:46:41.846Z,18.63
2023-04-21T02:49:10.217Z,18.45
2023-04-21T02:51:37.340Z,18.92
2023-04-21T02:54:05.517Z,18.00
2023-04-21T02:56:34.516Z,17.88
2023-04-21T02:59:01.638Z,18.60
2023-04-21T03:01:28.666Z,19.52
2023-04-21T03:03:55.853Z,19.75
2023-04-21T03:06:23.763Z,18.63
2023-04-21T03:08:50.820Z,18.52
2023-04-21T03:11:17.834Z,17.27
2023-04-21T03:13:44.843Z,18.08
2023-04-21T03:16:11.938Z,19.85
2023-04-21T03:18:39.005Z,19.08
2023-04-21T03:21:06.097Z,19.30
2023-04-21T03:23:33.165Z,20.00
2023-04-21T03:26:00.200Z,19.02
2023-04-21T03:28:27.302Z,19.30
2023-04-21T03:30:54.391Z,17.70
2023-04-21T03:33:21.774Z,19.35
2023-04-21T03:35:49.186Z,20.20
2023-04-21T03:38:16.224Z,19.25
2023-04-21T03:40:43.321Z,18.65
2023-04-21T03:43:10.496Z,19.20
2023-04-21T03:45:37.602Z,18.58
2023-04-21T03:48:05.199Z,18.50
2023-04-21T03:50:32.326Z,19.13
2023-04-21T03:52:59.395Z,18.33
2023-04-21T03:55:26.482Z,20.48
2023-04-21T03:57:53.982Z,18.65
2023-04-21T04:00:21.290Z,18.17
2023-04-21T04:02:48.514Z,17.90
2023-04-21T04:05:15.743Z,18.98
2023-04-21T04:07:42.850Z,17.92
2023-04-21T04:10:10.131Z,17.67
2023-04-21T04:12:37.254Z,18.85
2023-04-21T04:15:04.879Z,18.40
2023-04-21T04:17:32.011Z,17.90
2023-04-21T04:19:59.003Z,18.90
2023-04-21T04:22:26.099Z,17.95
2023-04-21T04:24:53.869Z,18.02
2023-04-21T04:27:20.978Z,18.58
2023-04-21T04:29:49.322Z,18.77
2023-04-21T04:32:16.602Z,19.02
2023-04-21T04:34:44.461Z,19.08
2023-04-21T04:37:13.079Z,20.45
2023-04-21T04:39:40.198Z,19.88
2023-04-21T04:42:09.342Z,20.73
2023-04-21T04:44:37.174Z,19.50
2023-04-21T04:47:05.153Z,20.13
2023-04-21T04:49:32.548Z,21.48
2023-04-21T04:51:59.883Z,20.75
2023-04-21T04:54:28.916Z,20.30
2023-04-21T04:56:57.088Z,22.45
2023-04-21T04:59:24.259Z,23.80
2023-04-21T05:01:52.733Z,23.02
2023-04-21T05:04:20.578Z,23.08
2023-04-21T05:06:48.434Z,21.38
2023-04-21T05:09:16.255Z,23.38
2023-04-21T05:11:43.845Z,22.98
2023-04-21T05:14:10.907Z,24.05
2023-04-21T05:16:38.109Z,24.17
2023-04-21T05:19:05.183Z,22.98
2023-04-21T05:21:33.416Z,23.55
2023-04-21T05:24:01.019Z,24.13
2023-04-21T05:26:29.971Z,23.73
2023-04-21T05:28:58.382Z,23.10
2023-04-21T05:31:26.004Z,23.65
2023-04-21T05:33:53.880Z,22.95
2023-04-21T05:36:20.939Z,23.45
2023-04-21T05:38:48.338Z,22.23
2023-04-21T05:41:16.047Z,24.08
2023-04-21T05:43:43.124Z,24.00
2023-04-21T05:46:11.132Z,23.70
2023-04-21T05:48:38.623Z,24.13
2023-04-21T05:51:15.610Z,24.38
2023-04-21T05:53:44.108Z,23.60
2023-04-21T05:56:12.523Z,23.25
2023-04-21T05:58:39.643Z,23.60
2023-04-21T06:01:06.826Z,22.50
2023-04-21T06:03:34.139Z,22.20
2023-04-21T06:06:03.812Z,23.75
2023-04-21T06:08:30.981Z,23.60
2023-04-21T06:10:58.247Z,24.50
2023-04-21T06:13:27.084Z,23.77
2023-04-21T06:15:55.247Z,23.35
2023-04-21T06:18:24.801Z,22.85
2023-04-21T06:20:53.687Z,23.58
2023-04-21T06:23:21.247Z,21.95
2023-04-21T06:26:00.324Z,22.70
2023-04-21T06:28:27.490Z,23.35
2023-04-21T06:30:54.539Z,24.23
2023-04-21T06:33:22.826Z,24.00
2023-04-21T06:35:49.960Z,22.95
2023-04-21T06:38:17.621Z,23.75
2023-04-21T06:40:44.728Z,22.27
2023-04-21T06:43:11.836Z,22.33
2023-04-21T06:45:38.990Z,23.75
2023-04-21T06:48:06.276Z,23.80
2023-04-21T06:50:33.388Z,22.80
2023-04-21T06:53:00.417Z,23.25
2023-04-21T06:55:27.529Z,24.15
2023-04-21T06:57:54.569Z,24.60
2023-04-21T07:00:23.593Z,25.00
2023-04-21T07:02:50.768Z,26.15
2023-04-21T07:05:18.273Z,24.50
2023-04-21T07:07:45.300Z,25.02
2023-04-21T07:10:12.515Z,23.67
2023-04-21T07:12:39.678Z,25.00
2023-04-21T07:15:07.538Z,24.55
2023-04-21T07:17:34.753Z,26.60
2023-04-21T07:20:03.176Z,26.20
2023-04-21T07:22:30.246Z,26.23
2023-04-21T07:24:57.338Z,26.20
2023-04-21T07:27:24.375Z,24.17
2023-04-21T07:29:51.645Z,23.75
2023-04-21T07:32:19.768Z,24.98
2023-04-21T07:34:48.429Z,23.85
2023-04-21T07:37:17.183Z,22.08
2023-04-21T07:39:44.300Z,21.75
2023-04-21T07:42:11.853Z,22.83
2023-04-21T07:44:39.099Z,21.02
2023-04-21T07:47:06.454Z,22.65
2023-04-21T07:49:33.546Z,22.75
2023-04-21T07:52:00.767Z,22.95
2023-04-21T07:54:28.542Z,22.85
2023-04-21T07:56:56.247Z,22.88
2023-04-21T07:59:23.775Z,23.23
2023-04-21T08:01:52.711Z,20.85
2023-04-21T08:04:20.117Z,22.30
2023-04-21T08:06:48.150Z,22.25
2023-04-21T08:09:15.148Z,22.80
2023-04-21T08:11:42.165Z,22.80
2023-04-21T08:14:11.687Z,23.45
2023-04-21T08:16:40.383Z,22.95
2023-04-21T08:19:08.850Z,22.70
2023-04-21T08:21:36.540Z,22.00
2023-04-21T08:24:07.413Z,23.60
2023-04-21T08:26:35.812Z,22.27
2023-04-21T08:29:04.519Z,20.05
2023-04-21T08:31:31.895Z,22.42
2023-04-21T08:34:03.017Z,22.17
2023-04-21T08:36:31.691Z,21.88
2023-04-21T08:38:59.366Z,22.55
2023-04-21T08:41:27.274Z,21.25
2023-04-21T08:43:54.434Z,20.90
2023-04-21T08:46:23.899Z,20.85
2023-04-21T08:48:52.327Z,20.92
2023-04-21T08:51:24.788Z,21.67
2023-04-21T08:53:53.216Z,21.08
2023-04-21T08:56:20.281Z,21.58
2023-04-21T08:58:47.807Z,21.80
2023-04-21T09:01:15.069Z,19.98
2023-04-21T09:03:42.403Z,22.10
2023-04-21T09:06:10.472Z,22.48
2023-04-21T09:08:42.067Z,21.50
2023-04-21T09:11:14.199Z,20.95
2023-04-21T09:13:42.623Z,21.20
2023-04-21T09:16:23.993Z,21.95
2023-04-21T09:18:51.386Z,21.67
2023-04-21T09:21:19.789Z,21.38
2023-04-21T09:23:52.557Z,21.63
2023-04-21T09:26:24.044Z,20.98
2023-04-21T09:28:53.243Z,22.30
2023-04-21T09:31:24.849Z,20.77
2023-04-21T09:33:58.614Z,21.25
2023-04-21T09:36:29.301Z,22.75
2023-04-21T09:39:29.160Z,20.70
2023-04-21T09:41:51.242Z,20.83
2023-04-21T09:44:19.355Z,20.65
2023-04-21T09:46:52.913Z,21.15
2023-04-21T09:49:26.143Z,22.20
2023-04-21T09:54:31.834Z,19.75
2023-04-21T09:57:04.502Z,20.52
2023-04-21T09:59:44.803Z,21.30
2023-04-21T10:02:12.842Z,21.75
2023-04-21T10:04:43.910Z,21.10
2023-04-21T10:07:11.734Z,20.70
2023-04-21T10:09:59.352Z,20.85
2023-04-21T10:12:27.789Z,19.90
2023-04-21T10:14:56.339Z,20.88
2023-04-21T10:17:25.979Z,21.15
2023-04-21T10:19:57.898Z,21.02
2023-04-21T10:22:35.539Z,19.45
2023-04-21T10:25:04.794Z,19.85
2023-04-21T10:27:34.653Z,20.02
2023-04-21T10:30:18.274Z,18.90
2023-04-21T10:32:46.344Z,19.98
2023-04-21T10:35:23.578Z,21.75
2023-04-21T10:37:52.720Z,22.55
2023-04-21T10:43:49.596Z,20.92
2023-04-21T10:46:34.893Z,20.27
2023-04-21T10:49:21.279Z,18.17
2023-04-21T10:51:58.310Z,20.08
2023-04-21T10:54:26.037Z,19.08
2023-04-21T10:56:57.823Z,20.33
2023-04-21T10:59:26.809Z,18.88
2023-04-21T11:01:54.992Z,19.27
2023-04-21T11:04:23.652Z,19.13
2023-04-21T11:07:10.438Z,19.42
2023-04-21T11:09:39.037Z,18.70
2023-04-21T11:12:11.155Z,19.33
2023-04-21T11:14:41.051Z,17.92
2023-04-21T11:17:12.667Z,19.05
2023-04-21T11:19:40.316Z,18.80
2023-04-21T11:22:07.453Z,18.10
2023-04-21T11:24:34.734Z,19.77
2023-04-21T11:27:02.482Z,18.55
2023-04-21T11:29:29.760Z,18.92
2023-04-21T11:31:58.907Z,18.10
2023-04-21T11:34:27.038Z,19.83
2023-04-21T11:36:55.778Z,18.52
2023-04-21T11:39:23.980Z,18.45
2023-04-21T11:41:52.769Z,18.55
2023-04-21T11:44:39.837Z,18.50
2023-04-21T11:47:18.220Z,18.13
2023-04-21T11:49:51.982Z,17.40
2023-04-21T11:52:22.756Z,18.42
2023-04-21T11:54:55.189Z,18.02
2023-04-21T11:57:24.403Z,17.10
2023-04-21T11:59:52.910Z,17.33
2023-04-21T12:02:28.509Z,17.67
2023-04-21T12:05:00.182Z,16.75
2023-04-21T12:07:29.671Z,16.58
2023-04-21T12:09:56.781Z,16.83
2023-04-21T12:12:24.820Z,16.15
2023-04-21T12:14:54.022Z,15.75
2023-04-21T12:17:21.203Z,15.38
2023-04-21T12:19:48.594Z,16.42
2023-04-21T12:22:18.664Z,16.10
2023-04-21T12:24:47.495Z,16.45
2023-04-21T12:27:14.714Z,15.13
2023-04-21T12:29:42.583Z,14.35
2023-04-21T12:32:10.154Z,14.07
2023-04-21T12:34:37.586Z,15.02
2023-04-21T12:37:04.959Z,14.35
2023-04-21T12:39:32.279Z,14.40
2023-04-21T12:41:59.952Z,15.52
2023-04-21T12:44:27.184Z,15.27
2023-04-21T12:46:54.649Z,15.43
2023-04-21T12:49:22.648Z,14.98
2023-04-21T12:51:49.972Z,16.00
2023-04-21T12:54:17.580Z,15.98
2023-04-21T12:56:44.807Z,17.05
2023-04-21T12:59:12.170Z,15.60
2023-04-21T13:01:41.335Z,17.10
2023-04-21T13:04:08.940Z,16.60
2023-04-21T13:06:38.586Z,17.67
2023-04-21T13:09:06.333Z,16.90
2023-04-21T13:11:33.777Z,17.27
2023-04-21T13:14:01.083Z,16.77
2023-04-21T13:16:30.036Z,17.92
2023-04-21T13:18:57.729Z,17.63
2023-04-21T13:21:24.873Z,19.05
2023-04-21T13:23:52.761Z,18.33
2023-04-21T13:26:19.968Z,18.45
2023-04-21T13:28:47.097Z,18.58
2023-04-21T13:31:14.710Z,18.08
2023-04-21T13:33:42.115Z,16.92
2023-04-21T13:36:12.593Z,17.77
2023-04-21T13:38:40.874Z,19.17
2023-04-21T13:41:08.695Z,18.58
2023-04-21T13:43:36.201Z,18.35
2023-04-21T13:46:03.792Z,16.88
2023-04-21T13:48:30.874Z,15.15
2023-04-21T13:50:57.973Z,14.23
2023-04-21T13:53:25.337Z,15.20
2023-04-21T13:55:54.610Z,13.32
2023-04-21T13:58:22.867Z,15.05
2023-04-21T14:00:50.175Z,20.30
2023-04-21T14:03:17.387Z,15.48
2023-04-21T14:05:44.676Z,13.82
2023-04-21T14:08:11.881Z,13.27
2023-04-21T14:10:38.915Z,13.57
2023-04-21T14:13:06.291Z,14.23
2023-04-21T14:15:33.492Z,12.25
2023-04-21T14:18:00.960Z,14.38
2023-04-21T14:20:28.300Z,13.40
2023-04-21T14:22:55.529Z,13.68
2023-04-21T14:25:23.877Z,12.88
2023-04-21T14:27:51.084Z,12.40
2023-04-21T14:30:18.691Z,12.30
2023-04-21T14:32:46.200Z,11.57
2023-04-21T14:35:13.816Z,12.93
2023-04-21T14:37:41.635Z,12.68
2023-04-21T14:40:09.523Z,13.13
2023-04-21T14:42:36.587Z,11.70
2023-04-21T14:45:04.017Z,12.38
2023-04-21T14:47:31.347Z,12.40
2023-04-21T14:49:58.490Z,13.30
2023-04-21T14:52:26.980Z,13.45
2023-04-21T14:54:54.209Z,12.77
2023-04-21T14:57:24.348Z,13.23
2023-04-21T14:59:53.952Z,14.20
2023-04-21T15:02:22.222Z,13.10
2023-04-21T15:04:50.327Z,14.18
2023-04-21T15:07:23.287Z,15.40
2023-04-21T15:12:19.051Z,14.57
2023-04-21T15:14:46.221Z,15.40
2023-04-21T15:17:13.556Z,15.90
2023-04-21T15:19:40.806Z,15.35
2023-04-21T15:22:07.996Z,17.88
2023-04-21T15:24:35.016Z,17.23
2023-04-21T15:27:02.699Z,19.15
2023-04-21T15:29:30.054Z,16.92
2023-04-21T15:31:57.188Z,18.35
2023-04-21T15:34:24.257Z,17.65
2023-04-21T15:36:51.400Z,17.42
2023-04-21T15:39:18.821Z,16.02
2023-04-21T15:41:45.918Z,17.52
2023-04-21T15:44:13.102Z,16.75
2023-04-21T15:46:40.505Z,15.15
2023-04-21T15:49:07.701Z,16.17
2023-04-21T15:51:35.155Z,15.73
2023-04-21T15:54:04.906Z,16.23
2023-04-21T15:56:31.963Z,14.95
2023-04-21T15:58:59.129Z,14.40
2023-04-21T16:01:26.393Z,13.65
2023-04-21T16:03:54.288Z,14.07
2023-04-21T16:06:24.236Z,15.32
2023-04-21T16:08:51.355Z,14.98
2023-04-21T16:11:18.722Z,14.45
2023-04-21T16:13:45.793Z,14.00
2023-04-21T16:16:13.132Z,15.10
2023-04-21T16:18:40.411Z,13.93
2023-04-21T16:21:10.565Z,13.93
2023-04-21T16:23:38.161Z,12.73
2023-04-21T16:26:06.285Z,13.98
2023-04-21T16:28:33.390Z,13.88
2023-04-21T16:31:00.495Z,13.98
2023-04-21T16:33:27.559Z,13.98
2023-04-21T16:35:56.830Z,13.93
2023-04-21T16:38:24.720Z,14.23
2023-04-21T16:40:52.959Z,14.73
2023-04-21T16:43:20.102Z,13.18
2023-04-21T16:45:47.323Z,14.43
2023-04-21T16:48:14.505Z,14.63
2023-04-21T16:50:41.993Z,14.63
2023-04-21T16:53:09.079Z,13.50
2023-04-21T16:55:36.282Z,13.55
2023-04-21T16:58:03.439Z,14.27
2023-04-21T17:00:30.578Z,13.80
2023-04-21T17:02:57.813Z,12.73
2023-04-21T17:05:25.044Z,12.85
2023-04-21T17:07:53.066Z,12.93
2023-04-21T17:10:20.267Z,12.60
2023-04-21T17:12:47.289Z,12.32
2023-04-21T17:15:14.331Z,13.98
2023-04-21T17:17:43.682Z,13.68
2023-04-21T17:20:12.736Z,12.32
2023-04-21T17:22:40.554Z,14.75
2023-04-21T17:25:09.100Z,13.45
2023-04-21T17:27:37.549Z,14.07
2023-04-21T17:30:05.751Z,14.60
2023-04-21T17:32:34.296Z,14.10
2023-04-21T17:35:02.908Z,15.55
2023-04-21T17:37:30.445Z,14.73
2023-04-21T17:39:59.262Z,15.20
2023-04-21T17:42:28.937Z,15.00
2023-04-21T17:44:55.967Z,15.10
2023-04-21T17:47:24.272Z,13.80
2023-04-21T17:49:51.410Z,15.35
2023-04-21T17:52:19.117Z,15.43
2023-04-21T17:54:46.854Z,13.65
2023-04-21T17:57:13.967Z,13.80
2023-04-21T17:59:41.147Z,14.65
2023-04-21T18:02:08.270Z,16.13
2023-04-21T18:04:36.370Z,15.63
2023-04-21T18:07:03.901Z,14.23
2023-04-21T18:09:31.678Z,15.07
2023-04-21T18:11:58.988Z,16.52
2023-04-21T18:14:26.649Z,16.60
2023-04-21T18:16:54.215Z,17.25
2023-04-21T18:19:21.280Z,15.32
2023-04-21T18:21:48.823Z,12.80
2023-04-21T18:24:15.884Z,14.40
2023-04-21T18:26:43.245Z,11.82
2023-04-21T18:29:10.433Z,9.90
2023-04-21T18:31:37.591Z,6.07
2023-04-21T18:34:05.965Z,9.23
2023-04-21T18:36:33.508Z,5.75
2023-04-21T18:39:01.637Z,6.15
2023-04-21T18:41:28.679Z,6.53
2023-04-21T18:43:55.790Z,6.80
2023-04-21T18:46:24.237Z,6.72
2023-04-21T18:48:51.343Z,6.60
2023-04-21T18:51:18.682Z,7.22
2023-04-21T18:53:46.328Z,6.70
2023-04-21T18:56:13.485Z,6.72
2023-04-21T18:58:40.682Z,6.40
2023-04-21T19:01:08.242Z,6.88
2023-04-21T19:03:35.547Z,6.68
2023-04-21T19:06:02.930Z,6.40
2023-04-21T19:08:41.452Z,6.53
2023-04-21T19:11:14.619Z,5.75
2023-04-21T19:13:41.735Z,6.40
2023-04-21T19:16:11.363Z,8.15
2023-04-21T19:18:38.619Z,7.55
2023-04-21T19:21:07.036Z,7.13
2023-04-21T19:23:34.138Z,7.68
2023-04-21T19:26:04.642Z,7.05
2023-04-21T19:28:32.222Z,7.55
2023-04-21T19:30:59.444Z,7.05
2023-04-21T19:33:26.453Z,7.65
2023-04-21T19:35:57.075Z,8.27
2023-04-21T19:38:31.328Z,8.27
2023-04-21T19:40:58.373Z,7.13
2023-04-21T19:43:25.694Z,6.95
2023-04-21T19:45:54.113Z,6.43
2023-04-21T19:48:22.451Z,7.22
2023-04-21T19:50:49.723Z,8.63
2023-04-21T19:53:17.420Z,15.63
2023-04-21T19:55:45.727Z,15.88
2023-04-21T19:58:13.212Z,11.00
2023-04-21T20:00:47.633Z,9.35
2023-04-21T20:03:15.038Z,9.32
2023-04-21T20:05:42.576Z,9.10
2023-04-21T20:08:09.760Z,9.40
2023-04-21T20:10:37.849Z,9.15
2023-04-21T20:13:08.642Z,8.95
2023-04-21T20:15:35.732Z,11.35
2023-04-21T20:18:03.109Z,9.90
2023-04-21T20:20:30.791Z,9.27
2023-04-21T20:22:57.870Z,9.10
2023-04-21T20:25:24.952Z,9.25
2023-04-21T20:27:52.975Z,8.50
2023-04-21T20:30:20.836Z,8.35
2023-04-21T20:33:00.204Z,8.23
2023-04-21T20:35:30.602Z,8.43
2023-04-21T20:37:59.706Z,7.38
2023-04-21T20:40:26.752Z,8.23
2023-04-21T20:42:53.833Z,8.15
2023-04-21T20:45:23.126Z,7.97
2023-04-21T20:47:54.713Z,7.30
2023-04-21T20:50:23.687Z,6.68
2023-04-21T20:52:51.014Z,6.15
2023-04-21T20:55:18.515Z,7.57
2023-04-21T20:57:45.662Z,6.78
2023-04-21T21:00:13.755Z,6.75
2023-04-21T21:02:41.344Z,6.20
2023-04-21T21:05:08.635Z,6.93
2023-04-21T21:07:35.734Z,9.07
2023-04-21T21:10:03.771Z,7.68
2023-04-21T21:12:30.844Z,7.70
2023-04-21T21:14:57.962Z,8.25
2023-04-21T21:17:25.195Z,8.75
2023-04-21T21:19:53.151Z,6.97
2023-04-21T21:22:20.307Z,5.97
2023-04-21T21:24:47.532Z,6.00
2023-04-21T21:27:14.566Z,6.72
2023-04-21T21:29:42.347Z,5.57
2023-04-21T21:32:09.480Z,5.70
2023-04-21T21:34:36.736Z,5.75
2023-04-21T21:37:04.304Z,6.03
2023-04-21T21:39:31.377Z,5.60
2023-04-21T21:41:58.403Z,5.50
2023-04-21T21:44:25.603Z,5.13
2023-04-21T21:46:53.704Z,5.38
2023-04-21T21:49:22.280Z,5.40
2023-04-21T21:51:49.811Z,6.10
2023-04-21T21:54:17.414Z,6.50
2023-04-21T21:56:44.773Z,6.20
2023-04-21T21:59:11.855Z,6.18
2023-04-21T22:01:39.072Z,6.45
2023-04-21T22:04:07.359Z,5.85
2023-04-21T22:06:35.010Z,5.85
2023-04-21T22:09:02.936Z,6.50
2023-04-21T22:11:30.314Z,6.28
2023-04-21T22:14:00.617Z,5.80
2023-04-21T22:16:32.817Z,5.88
2023-04-21T22:19:03.345Z,5.72
2023-04-21T22:21:31.638Z,6.22
2023-04-21T22:23:58.710Z,6.72
2023-04-21T22:26:25.749Z,7.88
2023-04-21T22:28:54.772Z,7.25
2023-04-21T22:31:23.200Z,7.53
2023-04-21T22:33:50.263Z,6.88
2023-04-21T22:36:17.732Z,7.15
2023-04-21T22:38:45.729Z,6.72
2023-04-21T22:41:13.908Z,6.82
2023-04-21T22:43:41.125Z,6.53
2023-04-21T22:46:08.262Z,6.68
2023-04-21T22:48:37.087Z,6.30
2023-04-21T22:51:05.645Z,6.10
2023-04-21T22:53:33.476Z,6.85
2023-04-21T22:56:00.637Z,7.30
2023-04-21T22:58:27.678Z,7.38
2023-04-21T23:00:54.825Z,7.13
2023-04-21T23:03:23.457Z,8.27
2023-04-21T23:05:50.885Z,8.70
2023-04-21T23:08:17.991Z,8.77
2023-04-21T23:10:45.076Z,8.43
2023-04-21T23:13:12.506Z,8.15
2023-04-21T23:15:39.570Z,7.80
2023-04-21T23:18:06.695Z,8.00
2023-04-21T23:20:33.911Z,7.90
2023-04-21T23:23:00.916Z,8.15
2023-04-21T23:25:28.003Z,7.65
2023-04-21T23:27:55.176Z,7.55
2023-04-21T23:30:23.005Z,7.72
2023-04-21T23:32:50.563Z,8.32
2023-04-21T23:35:17.930Z,8.43
2023-04-21T23:37:46.430Z,7.88
2023-04-21T23:40:13.735Z,8.30
2023-04-21T23:42:40.994Z,7.32
2023-04-21T23:45:08.701Z,7.03
2023-04-21T23:47:35.837Z,7.68
2023-04-21T23:50:03.767Z,7.78
2023-04-21T23:52:31.350Z,8.00
2023-04-21T23:54:58.456Z,8.45
2023-04-21T23:57:25.922Z,8.18
2023-04-21T23:59:54.271Z,8.10
